sensor_id;sensor_type;location;lat;lon;timestamp;P1;durP1;ratioP1;P2;durP2;ratioP2
28910;SDS011;16028;42.642;23.310;2022-11-15T00:00:45;66.63;;;30.80;;
28910;SDS011;16028;42.642;23.310;2022-11-15T00:03:12;66.40;;;33.40;;
28910;SDS011;16028;42.642;23.310;2022-11-15T00:05:40;59.50;;;31.75;;
28910;SDS011;16028;42.642;23.310;2022-11-15T00:08:07;64.47;;;34.45;;
28910;SDS011;16028;42.642;23.310;2022-11-15T00:10:33;63.70;;;33.58;;
28910;SDS011;16028;42.642;23.310;2022-11-15T00:13:03;63.42;;;33.50;;
28910;SDS011;16028;42.642;23.310;2022-11-15T00:15:32;58.42;;;33.08;;
28910;SDS011;16028;42.642;23.310;2022-11-15T00:18:01;66.07;;;33.22;;
28910;SDS011;16028;42.642;23.310;2022-11-15T00:20:28;65.55;;;33.47;;
28910;SDS011;16028;42.642;23.310;2022-11-15T00:22:54;58.58;;;31.77;;
28910;SDS011;16028;42.642;23.310;2022-11-15T00:25:21;62.03;;;31.95;;
28910;SDS011;16028;42.642;23.310;2022-11-15T00:27:48;62.65;;;33.00;;
28910;SDS011;16028;42.642;23.310;2022-11-15T00:30:16;66.07;;;34.85;;
28910;SDS011;16028;42.642;23.310;2022-11-15T00:32:45;59.75;;;32.20;;
28910;SDS011;16028;42.642;23.310;2022-11-15T00:35:11;63.65;;;34.40;;
28910;SDS011;16028;42.642;23.310;2022-11-15T00:37:38;73.80;;;35.03;;
28910;SDS011;16028;42.642;23.310;2022-11-15T00:40:05;65.57;;;33.78;;
28910;SDS011;16028;42.642;23.310;2022-11-15T00:42:33;62.42;;;32.67;;
28910;SDS011;16028;42.642;23.310;2022-11-15T00:44:59;68.55;;;32.40;;
28910;SDS011;16028;42.642;23.310;2022-11-15T00:47:26;57.22;;;31.20;;
28910;SDS011;16028;42.642;23.310;2022-11-15T00:49:54;58.95;;;32.03;;
28910;SDS011;16028;42.642;23.310;2022-11-15T00:52:21;59.28;;;31.35;;
28910;SDS011;16028;42.642;23.310;2022-11-15T00:54:48;58.08;;;30.92;;
28910;SDS011;16028;42.642;23.310;2022-11-15T00:57:14;53.63;;;29.85;;
28910;SDS011;16028;42.642;23.310;2022-11-15T00:59:41;56.00;;;29.92;;
28910;SDS011;16028;42.642;23.310;2022-11-15T01:02:08;53.65;;;29.55;;
28910;SDS011;16028;42.642;23.310;2022-11-15T01:04:34;59.05;;;31.55;;
28910;SDS011;16028;42.642;23.310;2022-11-15T01:07:02;56.50;;;29.48;;
28910;SDS011;16028;42.642;23.310;2022-11-15T01:09:29;55.63;;;29.52;;
28910;SDS011;16028;42.642;23.310;2022-11-15T01:11:56;57.53;;;29.95;;
28910;SDS011;16028;42.642;23.310;2022-11-15T01:14:22;57.42;;;30.05;;
28910;SDS011;16028;42.642;23.310;2022-11-15T01:16:49;53.55;;;30.77;;
28910;SDS011;16028;42.642;23.310;2022-11-15T01:19:16;61.97;;;32.40;;
28910;SDS011;16028;42.642;23.310;2022-11-15T01:21:42;55.80;;;30.77;;
28910;SDS011;16028;42.642;23.310;2022-11-15T01:24:11;58.55;;;30.05;;
28910;SDS011;16028;42.642;23.310;2022-11-15T01:26:39;60.63;;;30.65;;
28910;SDS011;16028;42.642;23.310;2022-11-15T01:29:06;60.58;;;29.45;;
28910;SDS011;16028;42.642;23.310;2022-11-15T01:31:32;59.13;;;29.67;;
28910;SDS011;16028;42.642;23.310;2022-11-15T01:33:59;59.80;;;30.48;;
28910;SDS011;16028;42.642;23.310;2022-11-15T01:36:26;55.75;;;28.17;;
28910;SDS011;16028;42.642;23.310;2022-11-15T01:38:53;55.90;;;27.80;;
28910;SDS011;16028;42.642;23.310;2022-11-15T01:41:22;57.25;;;27.23;;
28910;SDS011;16028;42.642;23.310;2022-11-15T01:43:51;58.33;;;28.15;;
28910;SDS011;16028;42.642;23.310;2022-11-15T01:46:22;46.00;;;26.17;;
28910;SDS011;16028;42.642;23.310;2022-11-15T01:48:53;48.88;;;26.65;;
28910;SDS011;16028;42.642;23.310;2022-11-15T01:51:24;52.17;;;26.95;;
28910;SDS011;16028;42.642;23.310;2022-11-15T01:53:55;48.25;;;24.48;;
28910;SDS011;16028;42.642;23.310;2022-11-15T01:56:27;43.42;;;23.02;;
28910;SDS011;16028;42.642;23.310;2022-11-15T01:58:56;43.63;;;22.58;;
28910;SDS011;16028;42.642;23.310;2022-11-15T02:01:27;43.33;;;22.38;;
28910;SDS011;16028;42.642;23.310;2022-11-15T02:03:57;39.88;;;20.67;;
28910;SDS011;16028;42.642;23.310;2022-11-15T02:06:26;36.33;;;20.35;;
28910;SDS011;16028;42.642;23.310;2022-11-15T02:08:53;36.22;;;19.00;;
28910;SDS011;16028;42.642;23.310;2022-11-15T02:11:22;36.58;;;19.88;;
28910;SDS011;16028;42.642;23.310;2022-11-15T02:13:50;35.13;;;19.25;;
28910;SDS011;16028;42.642;23.310;2022-11-15T02:16:19;39.97;;;20.00;;
28910;SDS011;16028;42.642;23.310;2022-11-15T02:18:55;39.22;;;21.10;;
28910;SDS011;16028;42.642;23.310;2022-11-15T02:21:28;38.35;;;21.38;;
28910;SDS011;16028;42.642;23.310;2022-11-15T02:24:18;41.63;;;21.38;;
28910;SDS011;16028;42.642;23.310;2022-11-15T02:30:20;42.83;;;23.83;;
28910;SDS011;16028;42.642;23.310;2022-11-15T02:33:03;44.17;;;23.85;;
28910;SDS011;16028;42.642;23.310;2022-11-15T02:35:40;44.88;;;24.00;;
28910;SDS011;16028;42.642;23.310;2022-11-15T02:38:12;50.78;;;25.95;;
28910;SDS011;16028;42.642;23.310;2022-11-15T02:40:45;46.45;;;24.88;;
28910;SDS011;16028;42.642;23.310;2022-11-15T02:43:21;50.22;;;25.98;;
28910;SDS011;16028;42.642;23.310;2022-11-15T02:46:15;53.58;;;25.90;;
28910;SDS011;16028;42.642;23.310;2022-11-15T02:49:08;41.95;;;22.80;;
28910;SDS011;16028;42.642;23.310;2022-11-15T02:51:37;47.10;;;24.75;;
28910;SDS011;16028;42.642;23.310;2022-11-15T02:54:05;48.35;;;24.63;;
28910;SDS011;16028;42.642;23.310;2022-11-15T02:56:32;46.60;;;25.30;;
28910;SDS011;16028;42.642;23.310;2022-11-15T02:59:13;48.65;;;24.38;;
28910;SDS011;16028;42.642;23.310;2022-11-15T03:01:59;44.92;;;23.65;;
28910;SDS011;16028;42.642;23.310;2022-11-15T03:04:40;50.05;;;24.83;;
28910;SDS011;16028;42.642;23.310;2022-11-15T03:07:11;45.33;;;24.25;;
28910;SDS011;16028;42.642;23.310;2022-11-15T03:09:45;43.35;;;23.65;;
28910;SDS011;16028;42.642;23.310;2022-11-15T03:12:22;47.95;;;23.83;;
28910;SDS011;16028;42.642;23.310;2022-11-15T03:14:54;52.88;;;25.80;;
28910;SDS011;16028;42.642;23.310;2022-11-15T03:17:27;49.88;;;26.33;;
28910;SDS011;16028;42.642;23.310;2022-11-15T03:19:57;48.13;;;26.85;;
28910;SDS011;16028;42.642;23.310;2022-11-15T03:22:28;48.00;;;25.90;;
28910;SDS011;16028;42.642;23.310;2022-11-15T03:25:00;48.70;;;26.80;;
28910;SDS011;16028;42.642;23.310;2022-11-15T03:27:33;58.88;;;28.13;;
28910;SDS011;16028;42.642;23.310;2022-11-15T03:30:05;58.35;;;29.65;;
28910;SDS011;16028;42.642;23.310;2022-11-15T03:32:35;75.88;;;32.92;;
28910;SDS011;16028;42.642;23.310;2022-11-15T03:35:06;84.22;;;34.10;;
28910;SDS011;16028;42.642;23.310;2022-11-15T03:37:36;86.82;;;36.70;;
28910;SDS011;16028;42.642;23.310;2022-11-15T03:40:07;82.57;;;36.97;;
28910;SDS011;16028;42.642;23.310;2022-11-15T03:42:36;79.63;;;35.97;;
28910;SDS011;16028;42.642;23.310;2022-11-15T03:45:11;83.93;;;35.97;;
28910;SDS011;16028;42.642;23.310;2022-11-15T03:47:43;80.93;;;39.08;;
28910;SDS011;16028;42.642;23.310;2022-11-15T03:52:44;84.53;;;38.80;;
28910;SDS011;16028;42.642;23.310;2022-11-15T03:55:13;85.88;;;39.80;;
28910;SDS011;16028;42.642;23.310;2022-11-15T03:57:41;85.78;;;38.22;;
28910;SDS011;16028;42.642;23.310;2022-11-15T04:00:09;80.35;;;36.85;;
28910;SDS011;16028;42.642;23.310;2022-11-15T04:02:37;77.45;;;36.17;;
28910;SDS011;16028;42.642;23.310;2022-11-15T04:05:05;81.40;;;36.47;;
28910;SDS011;16028;42.642;23.310;2022-11-15T04:07:32;78.35;;;35.72;;
28910;SDS011;16028;42.642;23.310;2022-11-15T04:09:59;79.80;;;36.25;;
28910;SDS011;16028;42.642;23.310;2022-11-15T04:12:29;83.63;;;36.22;;
28910;SDS011;16028;42.642;23.310;2022-11-15T04:14:59;75.80;;;34.35;;
28910;SDS011;16028;42.642;23.310;2022-11-15T04:20:00;68.55;;;30.80;;
28910;SDS011;16028;42.642;23.310;2022-11-15T04:22:45;74.03;;;33.00;;
28910;SDS011;16028;42.642;23.310;2022-11-15T04:25:29;61.80;;;33.80;;
28910;SDS011;16028;42.642;23.310;2022-11-15T04:27:56;62.83;;;32.55;;
28910;SDS011;16028;42.642;23.310;2022-11-15T04:30:23;61.03;;;33.25;;
28910;SDS011;16028;42.642;23.310;2022-11-15T04:32:49;58.22;;;31.80;;
28910;SDS011;16028;42.642;23.310;2022-11-15T04:35:16;69.65;;;33.60;;
28910;SDS011;16028;42.642;23.310;2022-11-15T04:37:43;61.92;;;32.75;;
28910;SDS011;16028;42.642;23.310;2022-11-15T04:40:11;68.13;;;34.40;;
28910;SDS011;16028;42.642;23.310;2022-11-15T04:42:40;65.90;;;32.63;;
28910;SDS011;16028;42.642;23.310;2022-11-15T04:45:07;72.72;;;33.97;;
28910;SDS011;16028;42.642;23.310;2022-11-15T04:47:34;81.78;;;37.85;;
28910;SDS011;16028;42.642;23.310;2022-11-15T04:50:01;103.40;;;39.42;;
28910;SDS011;16028;42.642;23.310;2022-11-15T04:52:27;84.70;;;39.45;;
28910;SDS011;16028;42.642;23.310;2022-11-15T04:54:54;95.72;;;37.83;;
28910;SDS011;16028;42.642;23.310;2022-11-15T04:57:22;86.57;;;39.17;;
28910;SDS011;16028;42.642;23.310;2022-11-15T04:59:49;100.32;;;44.03;;
28910;SDS011;16028;42.642;23.310;2022-11-15T05:02:15;100.43;;;43.72;;
28910;SDS011;16028;42.642;23.310;2022-11-15T05:04:42;93.43;;;42.95;;
28910;SDS011;16028;42.642;23.310;2022-11-15T05:07:08;109.40;;;44.50;;
28910;SDS011;16028;42.642;23.310;2022-11-15T05:09:34;95.57;;;41.78;;
28910;SDS011;16028;42.642;23.310;2022-11-15T05:12:01;113.45;;;42.75;;
28910;SDS011;16028;42.642;23.310;2022-11-15T05:14:29;91.88;;;41.58;;
28910;SDS011;16028;42.642;23.310;2022-11-15T05:16:56;81.50;;;37.20;;
28910;SDS011;16028;42.642;23.310;2022-11-15T05:19:23;79.05;;;37.05;;
28910;SDS011;16028;42.642;23.310;2022-11-15T05:21:49;96.95;;;37.28;;
28910;SDS011;16028;42.642;23.310;2022-11-15T05:24:16;86.43;;;35.28;;
28910;SDS011;16028;42.642;23.310;2022-11-15T05:26:43;75.68;;;35.55;;
28910;SDS011;16028;42.642;23.310;2022-11-15T05:29:09;78.57;;;36.92;;
28910;SDS011;16028;42.642;23.310;2022-11-15T05:31:40;69.60;;;36.10;;
28910;SDS011;16028;42.642;23.310;2022-11-15T05:34:07;69.32;;;36.00;;
28910;SDS011;16028;42.642;23.310;2022-11-15T05:36:35;70.47;;;36.47;;
28910;SDS011;16028;42.642;23.310;2022-11-15T05:39:04;70.85;;;34.22;;
28910;SDS011;16028;42.642;23.310;2022-11-15T05:41:33;65.70;;;33.72;;
28910;SDS011;16028;42.642;23.310;2022-11-15T05:44:02;67.97;;;32.58;;
28910;SDS011;16028;42.642;23.310;2022-11-15T05:46:31;70.68;;;34.92;;
28910;SDS011;16028;42.642;23.310;2022-11-15T05:49:01;69.10;;;34.47;;
28910;SDS011;16028;42.642;23.310;2022-11-15T05:51:28;71.53;;;33.22;;
28910;SDS011;16028;42.642;23.310;2022-11-15T05:53:56;62.28;;;30.98;;
28910;SDS011;16028;42.642;23.310;2022-11-15T05:56:24;63.78;;;31.17;;
28910;SDS011;16028;42.642;23.310;2022-11-15T05:58:52;63.95;;;30.90;;
28910;SDS011;16028;42.642;23.310;2022-11-15T06:01:20;67.75;;;28.80;;
28910;SDS011;16028;42.642;23.310;2022-11-15T06:03:46;81.53;;;27.52;;
28910;SDS011;16028;42.642;23.310;2022-11-15T06:06:14;58.40;;;28.90;;
28910;SDS011;16028;42.642;23.310;2022-11-15T06:08:41;58.67;;;29.33;;
28910;SDS011;16028;42.642;23.310;2022-11-15T06:11:08;86.63;;;31.52;;
28910;SDS011;16028;42.642;23.310;2022-11-15T06:13:35;74.65;;;30.88;;
28910;SDS011;16028;42.642;23.310;2022-11-15T06:16:01;99.82;;;32.72;;
28910;SDS011;16028;42.642;23.310;2022-11-15T06:18:31;74.88;;;33.42;;
28910;SDS011;16028;42.642;23.310;2022-11-15T06:20:58;126.50;;;35.72;;
28910;SDS011;16028;42.642;23.310;2022-11-15T06:23:27;72.70;;;32.50;;
28910;SDS011;16028;42.642;23.310;2022-11-15T06:25:57;106.13;;;35.42;;
28910;SDS011;16028;42.642;23.310;2022-11-15T06:28:24;108.63;;;34.80;;
28910;SDS011;16028;42.642;23.310;2022-11-15T06:30:50;124.38;;;34.80;;
28910;SDS011;16028;42.642;23.310;2022-11-15T06:33:17;91.38;;;34.03;;
28910;SDS011;16028;42.642;23.310;2022-11-15T06:35:44;108.07;;;34.95;;
28910;SDS011;16028;42.642;23.310;2022-11-15T06:38:10;105.40;;;37.50;;
28910;SDS011;16028;42.642;23.310;2022-11-15T06:40:39;89.75;;;35.83;;
28910;SDS011;16028;42.642;23.310;2022-11-15T06:43:06;75.88;;;33.38;;
28910;SDS011;16028;42.642;23.310;2022-11-15T06:45:33;92.07;;;35.53;;
28910;SDS011;16028;42.642;23.310;2022-11-15T06:48:00;77.65;;;34.42;;
28910;SDS011;16028;42.642;23.310;2022-11-15T06:50:27;95.55;;;35.35;;
28910;SDS011;16028;42.642;23.310;2022-11-15T06:52:53;111.50;;;36.22;;
28910;SDS011;16028;42.642;23.310;2022-11-15T06:55:20;114.78;;;39.00;;
28910;SDS011;16028;42.642;23.310;2022-11-15T06:57:49;94.47;;;35.22;;
28910;SDS011;16028;42.642;23.310;2022-11-15T07:00:17;98.90;;;37.83;;
28910;SDS011;16028;42.642;23.310;2022-11-15T07:02:45;120.35;;;38.78;;
28910;SDS011;16028;42.642;23.310;2022-11-15T07:05:12;96.25;;;37.00;;
28910;SDS011;16028;42.642;23.310;2022-11-15T07:07:40;102.55;;;38.33;;
28910;SDS011;16028;42.642;23.310;2022-11-15T07:10:08;99.57;;;37.95;;
28910;SDS011;16028;42.642;23.310;2022-11-15T07:12:35;101.78;;;39.50;;
28910;SDS011;16028;42.642;23.310;2022-11-15T07:15:07;92.57;;;39.60;;
28910;SDS011;16028;42.642;23.310;2022-11-15T07:17:35;111.78;;;40.92;;
28910;SDS011;16028;42.642;23.310;2022-11-15T07:20:01;98.68;;;39.92;;
28910;SDS011;16028;42.642;23.310;2022-11-15T07:22:28;127.07;;;43.67;;
28910;SDS011;16028;42.642;23.310;2022-11-15T07:24:55;112.63;;;42.47;;
28910;SDS011;16028;42.642;23.310;2022-11-15T07:27:22;105.22;;;44.08;;
28910;SDS011;16028;42.642;23.310;2022-11-15T07:29:48;133.27;;;46.08;;
28910;SDS011;16028;42.642;23.310;2022-11-15T07:32:16;129.13;;;46.72;;
28910;SDS011;16028;42.642;23.310;2022-11-15T07:34:43;109.50;;;45.47;;
28910;SDS011;16028;42.642;23.310;2022-11-15T07:37:11;100.40;;;43.20;;
28910;SDS011;16028;42.642;23.310;2022-11-15T07:39:38;112.18;;;43.53;;
28910;SDS011;16028;42.642;23.310;2022-11-15T07:42:05;141.23;;;41.92;;
28910;SDS011;16028;42.642;23.310;2022-11-15T07:44:48;95.88;;;41.67;;
28910;SDS011;16028;42.642;23.310;2022-11-15T07:47:16;110.10;;;40.00;;
28910;SDS011;16028;42.642;23.310;2022-11-15T07:49:43;107.22;;;41.17;;
28910;SDS011;16028;42.642;23.310;2022-11-15T07:52:11;99.38;;;43.92;;
28910;SDS011;16028;42.642;23.310;2022-11-15T07:54:37;110.55;;;47.00;;
28910;SDS011;16028;42.642;23.310;2022-11-15T07:57:04;117.53;;;45.22;;
28910;SDS011;16028;42.642;23.310;2022-11-15T07:59:32;151.75;;;49.97;;
28910;SDS011;16028;42.642;23.310;2022-11-15T08:01:59;127.57;;;49.40;;
28910;SDS011;16028;42.642;23.310;2022-11-15T08:04:30;127.85;;;47.75;;
28910;SDS011;16028;42.642;23.310;2022-11-15T08:06:58;120.13;;;47.95;;
28910;SDS011;16028;42.642;23.310;2022-11-15T08:09:24;129.85;;;50.22;;
28910;SDS011;16028;42.642;23.310;2022-11-15T08:11:51;130.02;;;50.15;;
28910;SDS011;16028;42.642;23.310;2022-11-15T08:14:18;121.97;;;47.42;;
28910;SDS011;16028;42.642;23.310;2022-11-15T08:16:47;137.15;;;50.10;;
28910;SDS011;16028;42.642;23.310;2022-11-15T08:19:13;134.38;;;50.45;;
28910;SDS011;16028;42.642;23.310;2022-11-15T08:21:42;134.02;;;51.88;;
28910;SDS011;16028;42.642;23.310;2022-11-15T08:24:09;159.20;;;55.38;;
28910;SDS011;16028;42.642;23.310;2022-11-15T08:26:36;141.20;;;51.47;;
28910;SDS011;16028;42.642;23.310;2022-11-15T08:29:03;153.60;;;55.20;;
28910;SDS011;16028;42.642;23.310;2022-11-15T08:31:30;170.80;;;61.97;;
28910;SDS011;16028;42.642;23.310;2022-11-15T08:33:57;182.35;;;64.43;;
28910;SDS011;16028;42.642;23.310;2022-11-15T08:36:23;185.75;;;63.47;;
28910;SDS011;16028;42.642;23.310;2022-11-15T08:38:51;174.68;;;63.50;;
28910;SDS011;16028;42.642;23.310;2022-11-15T08:41:19;186.68;;;63.90;;
28910;SDS011;16028;42.642;23.310;2022-11-15T08:43:52;173.48;;;63.95;;
28910;SDS011;16028;42.642;23.310;2022-11-15T08:46:19;166.68;;;63.22;;
28910;SDS011;16028;42.642;23.310;2022-11-15T08:48:46;189.65;;;65.47;;
28910;SDS011;16028;42.642;23.310;2022-11-15T08:51:12;202.07;;;66.40;;
28910;SDS011;16028;42.642;23.310;2022-11-15T08:53:39;202.05;;;69.78;;
28910;SDS011;16028;42.642;23.310;2022-11-15T08:56:08;204.07;;;69.80;;
28910;SDS011;16028;42.642;23.310;2022-11-15T08:58:35;202.82;;;68.88;;
28910;SDS011;16028;42.642;23.310;2022-11-15T09:01:02;188.00;;;65.28;;
28910;SDS011;16028;42.642;23.310;2022-11-15T09:03:30;193.23;;;66.00;;
28910;SDS011;16028;42.642;23.310;2022-11-15T09:05:57;184.20;;;66.95;;
28910;SDS011;16028;42.642;23.310;2022-11-15T09:08:25;210.20;;;68.10;;
28910;SDS011;16028;42.642;23.310;2022-11-15T09:10:56;191.98;;;66.40;;
28910;SDS011;16028;42.642;23.310;2022-11-15T09:13:24;176.18;;;64.95;;
28910;SDS011;16028;42.642;23.310;2022-11-15T09:15:50;166.10;;;62.70;;
28910;SDS011;16028;42.642;23.310;2022-11-15T09:18:17;169.52;;;63.50;;
28910;SDS011;16028;42.642;23.310;2022-11-15T09:20:45;182.90;;;63.47;;
28910;SDS011;16028;42.642;23.310;2022-11-15T09:23:12;178.93;;;63.83;;
28910;SDS011;16028;42.642;23.310;2022-11-15T09:25:38;183.25;;;62.58;;
28910;SDS011;16028;42.642;23.310;2022-11-15T09:28:05;170.18;;;62.33;;
28910;SDS011;16028;42.642;23.310;2022-11-15T09:30:34;168.07;;;62.88;;
28910;SDS011;16028;42.642;23.310;2022-11-15T09:33:05;176.95;;;64.68;;
28910;SDS011;16028;42.642;23.310;2022-11-15T09:35:33;178.18;;;62.80;;
28910;SDS011;16028;42.642;23.310;2022-11-15T09:37:59;170.55;;;65.47;;
28910;SDS011;16028;42.642;23.310;2022-11-15T09:40:26;167.90;;;66.95;;
28910;SDS011;16028;42.642;23.310;2022-11-15T09:43:00;177.25;;;67.03;;
28910;SDS011;16028;42.642;23.310;2022-11-15T09:45:37;170.95;;;66.57;;
28910;SDS011;16028;42.642;23.310;2022-11-15T09:48:30;163.05;;;63.72;;
28910;SDS011;16028;42.642;23.310;2022-11-15T09:51:06;169.57;;;65.18;;
28910;SDS011;16028;42.642;23.310;2022-11-15T09:53:41;175.27;;;64.80;;
28910;SDS011;16028;42.642;23.310;2022-11-15T09:56:25;177.05;;;62.53;;
28910;SDS011;16028;42.642;23.310;2022-11-15T09:58:55;163.95;;;61.58;;
28910;SDS011;16028;42.642;23.310;2022-11-15T10:01:36;156.18;;;62.92;;
28910;SDS011;16028;42.642;23.310;2022-11-15T10:04:11;165.68;;;63.03;;
28910;SDS011;16028;42.642;23.310;2022-11-15T10:06:44;170.15;;;65.70;;
28910;SDS011;16028;42.642;23.310;2022-11-15T10:09:17;172.07;;;66.35;;
28910;SDS011;16028;42.642;23.310;2022-11-15T10:11:48;170.45;;;65.05;;
28910;SDS011;16028;42.642;23.310;2022-11-15T10:14:16;172.70;;;66.63;;
28910;SDS011;16028;42.642;23.310;2022-11-15T10:19:45;165.45;;;64.03;;
28910;SDS011;16028;42.642;23.310;2022-11-15T10:22:24;163.75;;;67.30;;
28910;SDS011;16028;42.642;23.310;2022-11-15T10:24:58;163.82;;;64.80;;
28910;SDS011;16028;42.642;23.310;2022-11-15T10:27:37;160.57;;;63.83;;
28910;SDS011;16028;42.642;23.310;2022-11-15T10:30:06;153.68;;;62.20;;
28910;SDS011;16028;42.642;23.310;2022-11-15T10:32:39;159.07;;;63.20;;
28910;SDS011;16028;42.642;23.310;2022-11-15T10:35:18;163.10;;;64.53;;
28910;SDS011;16028;42.642;23.310;2022-11-15T10:37:46;151.93;;;62.33;;
28910;SDS011;16028;42.642;23.310;2022-11-15T10:40:17;151.70;;;62.60;;
28910;SDS011;16028;42.642;23.310;2022-11-15T10:42:46;147.18;;;62.53;;
28910;SDS011;16028;42.642;23.310;2022-11-15T10:45:23;152.95;;;62.22;;
28910;SDS011;16028;42.642;23.310;2022-11-15T10:47:54;146.52;;;60.03;;
28910;SDS011;16028;42.642;23.310;2022-11-15T10:50:49;144.88;;;61.22;;
28910;SDS011;16028;42.642;23.310;2022-11-15T10:53:20;141.35;;;60.67;;
28910;SDS011;16028;42.642;23.310;2022-11-15T10:55:51;139.68;;;61.88;;
28910;SDS011;16028;42.642;23.310;2022-11-15T10:58:21;140.75;;;59.30;;
28910;SDS011;16028;42.642;23.310;2022-11-15T11:00:56;136.63;;;61.00;;
28910;SDS011;16028;42.642;23.310;2022-11-15T11:03:37;132.23;;;59.85;;
28910;SDS011;16028;42.642;23.310;2022-11-15T11:06:09;128.70;;;59.08;;
28910;SDS011;16028;42.642;23.310;2022-11-15T11:08:37;127.90;;;58.97;;
28910;SDS011;16028;42.642;23.310;2022-11-15T11:11:04;135.73;;;60.40;;
28910;SDS011;16028;42.642;23.310;2022-11-15T11:13:32;137.73;;;59.20;;
28910;SDS011;16028;42.642;23.310;2022-11-15T11:19:04;119.35;;;58.45;;
28910;SDS011;16028;42.642;23.310;2022-11-15T11:21:43;113.05;;;54.95;;
28910;SDS011;16028;42.642;23.310;2022-11-15T11:24:17;109.35;;;52.50;;
28910;SDS011;16028;42.642;23.310;2022-11-15T11:26:56;109.15;;;52.50;;
28910;SDS011;16028;42.642;23.310;2022-11-15T11:29:38;104.95;;;50.45;;
28910;SDS011;16028;42.642;23.310;2022-11-15T11:32:28;105.63;;;50.70;;
28910;SDS011;16028;42.642;23.310;2022-11-15T11:35:11;106.18;;;51.55;;
28910;SDS011;16028;42.642;23.310;2022-11-15T11:37:43;98.72;;;48.65;;
28910;SDS011;16028;42.642;23.310;2022-11-15T11:40:16;96.78;;;49.70;;
28910;SDS011;16028;42.642;23.310;2022-11-15T11:42:53;105.03;;;49.92;;
28910;SDS011;16028;42.642;23.310;2022-11-15T11:45:26;104.00;;;49.90;;
28910;SDS011;16028;42.642;23.310;2022-11-15T11:48:09;104.72;;;49.63;;
28910;SDS011;16028;42.642;23.310;2022-11-15T11:50:40;111.13;;;52.42;;
28910;SDS011;16028;42.642;23.310;2022-11-15T11:53:12;103.97;;;48.17;;
28910;SDS011;16028;42.642;23.310;2022-11-15T11:55:42;100.50;;;50.72;;
28910;SDS011;16028;42.642;23.310;2022-11-15T11:58:13;96.65;;;47.75;;
28910;SDS011;16028;42.642;23.310;2022-11-15T12:00:47;90.13;;;47.47;;
28910;SDS011;16028;42.642;23.310;2022-11-15T12:03:28;96.53;;;48.47;;
28910;SDS011;16028;42.642;23.310;2022-11-15T12:06:04;98.45;;;48.35;;
28910;SDS011;16028;42.642;23.310;2022-11-15T12:08:45;88.78;;;48.13;;
28910;SDS011;16028;42.642;23.310;2022-11-15T12:11:20;100.93;;;47.28;;
28910;SDS011;16028;42.642;23.310;2022-11-15T12:14:00;99.90;;;49.83;;
28910;SDS011;16028;42.642;23.310;2022-11-15T12:16:30;99.88;;;48.97;;
28910;SDS011;16028;42.642;23.310;2022-11-15T12:18:59;104.80;;;49.80;;
28910;SDS011;16028;42.642;23.310;2022-11-15T12:21:31;111.47;;;51.92;;
28910;SDS011;16028;42.642;23.310;2022-11-15T12:24:04;95.47;;;50.58;;
28910;SDS011;16028;42.642;23.310;2022-11-15T12:26:35;112.45;;;51.47;;
28910;SDS011;16028;42.642;23.310;2022-11-15T12:29:09;107.72;;;52.38;;
28910;SDS011;16028;42.642;23.310;2022-11-15T12:31:43;98.35;;;50.20;;
28910;SDS011;16028;42.642;23.310;2022-11-15T12:34:16;100.40;;;50.92;;
28910;SDS011;16028;42.642;23.310;2022-11-15T12:40:33;102.43;;;49.15;;
28910;SDS011;16028;42.642;23.310;2022-11-15T12:43:03;98.70;;;50.92;;
28910;SDS011;16028;42.642;23.310;2022-11-15T12:45:45;422.73;;;77.65;;
28910;SDS011;16028;42.642;23.310;2022-11-15T12:57:35;147.70;;;65.72;;
28910;SDS011;16028;42.642;23.310;2022-11-15T13:03:16;152.23;;;68.10;;
28910;SDS011;16028;42.642;23.310;2022-11-15T13:06:04;161.65;;;69.10;;
28910;SDS011;16028;42.642;23.310;2022-11-15T13:08:37;148.13;;;67.32;;
28910;SDS011;16028;42.642;23.310;2022-11-15T13:17:31;149.27;;;67.43;;
28910;SDS011;16028;42.642;23.310;2022-11-15T13:20:01;136.82;;;66.00;;
28910;SDS011;16028;42.642;23.310;2022-11-15T13:22:46;129.93;;;63.95;;
28910;SDS011;16028;42.642;23.310;2022-11-15T13:25:16;138.85;;;61.25;;
28910;SDS011;16028;42.642;23.310;2022-11-15T13:27:49;125.27;;;60.27;;
28910;SDS011;16028;42.642;23.310;2022-11-15T13:30:20;113.40;;;56.45;;
28910;SDS011;16028;42.642;23.310;2022-11-15T13:32:48;130.80;;;59.90;;
28910;SDS011;16028;42.642;23.310;2022-11-15T13:35:18;127.45;;;62.58;;
28910;SDS011;16028;42.642;23.310;2022-11-15T13:37:47;122.03;;;57.13;;
28910;SDS011;16028;42.642;23.310;2022-11-15T13:40:23;121.93;;;59.10;;
28910;SDS011;16028;42.642;23.310;2022-11-15T13:42:52;113.28;;;55.45;;
28910;SDS011;16028;42.642;23.310;2022-11-15T13:45:21;109.93;;;56.58;;
28910;SDS011;16028;42.642;23.310;2022-11-15T13:47:52;116.25;;;54.97;;
28910;SDS011;16028;42.642;23.310;2022-11-15T13:50:21;116.22;;;58.75;;
28910;SDS011;16028;42.642;23.310;2022-11-15T13:52:51;118.78;;;56.47;;
28910;SDS011;16028;42.642;23.310;2022-11-15T13:55:20;117.35;;;55.67;;
28910;SDS011;16028;42.642;23.310;2022-11-15T13:57:49;104.35;;;53.78;;
28910;SDS011;16028;42.642;23.310;2022-11-15T14:00:26;126.80;;;53.60;;
28910;SDS011;16028;42.642;23.310;2022-11-15T14:03:03;107.30;;;53.45;;
28910;SDS011;16028;42.642;23.310;2022-11-15T14:05:33;106.55;;;53.65;;
28910;SDS011;16028;42.642;23.310;2022-11-15T14:08:01;110.20;;;52.70;;
28910;SDS011;16028;42.642;23.310;2022-11-15T14:10:30;104.13;;;53.28;;
28910;SDS011;16028;42.642;23.310;2022-11-15T14:12:59;110.63;;;54.15;;
28910;SDS011;16028;42.642;23.310;2022-11-15T14:15:30;107.32;;;55.03;;
28910;SDS011;16028;42.642;23.310;2022-11-15T14:17:59;114.03;;;56.00;;
28910;SDS011;16028;42.642;23.310;2022-11-15T14:20:27;113.22;;;56.10;;
28910;SDS011;16028;42.642;23.310;2022-11-15T14:22:58;109.38;;;56.25;;
28910;SDS011;16028;42.642;23.310;2022-11-15T14:25:26;98.50;;;52.35;;
28910;SDS011;16028;42.642;23.310;2022-11-15T14:28:13;153.95;;;80.65;;
28910;SDS011;16028;42.642;23.310;2022-11-15T14:30:44;184.02;;;99.88;;
28910;SDS011;16028;42.642;23.310;2022-11-15T14:33:19;123.05;;;59.08;;
28910;SDS011;16028;42.642;23.310;2022-11-15T14:35:48;121.13;;;56.38;;
28910;SDS011;16028;42.642;23.310;2022-11-15T14:38:15;118.57;;;57.50;;
28910;SDS011;16028;42.642;23.310;2022-11-15T14:40:42;125.18;;;59.00;;
28910;SDS011;16028;42.642;23.310;2022-11-15T14:43:10;109.63;;;53.63;;
28910;SDS011;16028;42.642;23.310;2022-11-15T14:45:37;115.10;;;55.63;;
28910;SDS011;16028;42.642;23.310;2022-11-15T14:48:06;110.80;;;55.97;;
28910;SDS011;16028;42.642;23.310;2022-11-15T14:50:36;111.30;;;56.67;;
28910;SDS011;16028;42.642;23.310;2022-11-15T14:53:02;117.35;;;56.17;;
28910;SDS011;16028;42.642;23.310;2022-11-15T14:55:30;118.88;;;57.55;;
28910;SDS011;16028;42.642;23.310;2022-11-15T14:58:00;112.78;;;55.42;;